Time;durP1;ratioP1;P1;durP2;ratioP2;P2;SDS_P1;SDS_P2;PMS_P1;PMS_P2;Temp;Humidity;BMP_temperature;BMP_pressure;BME280_temperature;BME280_humidity;BME280_pressure;Samples;Min_cycle;Max_cycle;Signal;HPM_P1;HPM_P2
2022/04/16 00:04:47;;;;;;;15.03;9.67;;;7.00;99.90;;;;;;10356369;28;20056;-80
2022/04/16 00:09:48;;;;;;;15.00;9.30;;;6.80;99.90;;;;;;10355893;28;20206;-80
2022/04/16 00:14:49;;;;;;;19.07;10.00;;;6.60;99.90;;;;;;10358177;28;20557;-80
2022/04/16 00:19:50;;;;;;;16.43;10.53;;;6.50;99.90;;;;;;10338822;23;20136;-79
2022/04/16 00:24:50;;;;;;;23.40;12.30;;;6.40;99.90;;;;;;10298277;28;20995;-80
2022/04/16 00:29:51;;;;;;;21.60;12.13;;;6.40;99.90;;;;;;10292339;28;20041;-80
2022/04/16 00:34:53;;;;;;;23.53;11.43;;;6.30;99.90;;;;;;10297619;28;20031;-80
2022/04/16 00:39:53;;;;;;;26.37;12.73;;;6.30;99.90;;;;;;10330310;28;20034;-80
2022/04/16 00:44:54;;;;;;;29.40;13.33;;;6.20;99.90;;;;;;10334621;28;20042;-80
2022/04/16 00:49:55;;;;;;;24.07;12.10;;;6.20;99.90;;;;;;10327969;28;20037;-80
2022/04/16 00:54:56;;;;;;;23.37;12.30;;;6.20;99.90;;;;;;10331650;28;20141;-81
2022/04/16 00:59:57;;;;;;;25.00;12.80;;;6.20;99.90;;;;;;10333715;28;20100;-80
2022/04/16 01:04:57;;;;;;;26.70;13.23;;;6.10;99.90;;;;;;10328480;28;20364;-80
2022/04/16 01:09:58;;;;;;;29.93;13.77;;;6.00;99.90;;;;;;10337776;28;20030;-82
2022/04/16 01:14:58;;;;;;;25.73;12.43;;;6.00;99.90;;;;;;10328683;28;20044;-80
2022/04/16 01:20:01;;;;;;;32.10;14.37;;;5.90;99.90;;;;;;10328943;28;20092;-81
2022/04/16 01:25:02;;;;;;;40.50;18.73;;;5.80;99.90;;;;;;10328765;28;20071;-81
2022/04/16 01:30:04;;;;;;;47.67;19.83;;;5.80;99.90;;;;;;10328236;28;20029;-81
2022/04/16 01:35:05;;;;;;;36.17;15.33;;;5.80;99.90;;;;;;10326914;28;20022;-83
2022/04/16 01:40:08;;;;;;;29.50;13.40;;;5.70;99.90;;;;;;10319059;28;20073;-79
2022/04/16 01:45:10;;;;;;;26.83;13.50;;;5.60;99.90;;;;;;10303524;28;20089;-81
2022/04/16 01:50:12;;;;;;;28.03;12.60;;;5.50;99.90;;;;;;10327591;28;20034;-80
2022/04/16 01:55:12;;;;;;;28.73;12.97;;;5.50;99.90;;;;;;10320427;28;20102;-82
2022/04/16 02:00:14;;;;;;;22.50;11.67;;;5.40;99.90;;;;;;10325255;28;20471;-82
2022/04/16 02:05:15;;;;;;;28.87;12.70;;;5.50;99.90;;;;;;10328382;28;20553;-81
2022/04/16 02:10:16;;;;;;;24.27;11.17;;;5.40;99.90;;;;;;10308408;28;20791;-81
2022/04/16 02:15:17;;;;;;;24.97;11.67;;;5.40;99.90;;;;;;10309379;28;20034;-83
2022/04/16 02:20:17;;;;;;;27.83;12.73;;;5.30;99.90;;;;;;10324992;28;20058;-80
2022/04/16 02:25:20;;;;;;;29.57;13.33;;;5.30;99.90;;;;;;10326258;28;20033;-80
2022/04/16 02:30:20;;;;;;;29.27;13.73;;;5.30;99.90;;;;;;10326366;28;20030;-83
2022/04/16 02:35:23;;;;;;;21.17;10.63;;;5.20;99.90;;;;;;10327042;28;20084;-80
2022/04/16 02:40:23;;;;;;;25.87;11.47;;;5.20;99.90;;;;;;10325709;28;20046;-81
2022/04/16 02:50:44;;;;;;;21.23;9.60;;;5.10;99.90;;;;;;10315987;28;20054;-80
2022/04/16 02:55:46;;;;;;;11.30;6.33;;;5.00;99.90;;;;;;10334621;28;20133;-81
2022/04/16 03:00:47;;;;;;;14.77;6.83;;;4.90;99.90;;;;;;10333822;28;20018;-81
2022/04/16 03:05:49;;;;;;;12.67;6.97;;;4.70;99.90;;;;;;10329610;28;20084;-81
2022/04/16 03:10:50;;;;;;;14.87;7.23;;;4.60;99.90;;;;;;10334138;28;20038;-82
2022/04/16 03:21:11;;;;;;;14.23;7.20;;;4.40;99.90;;;;;;10332980;28;20414;-81
2022/04/16 03:26:11;;;;;;;13.00;6.07;;;4.30;99.90;;;;;;10301206;28;20121;-81
2022/04/16 03:31:12;;;;;;;10.07;5.53;;;4.30;99.90;;;;;;10309255;28;20437;-81
2022/04/16 03:36:13;;;;;;;15.90;6.03;;;4.20;99.90;;;;;;10332934;28;20030;-81
2022/04/16 03:41:13;;;;;;;14.77;6.33;;;4.10;99.90;;;;;;10329781;28;20597;-81
2022/04/16 03:46:14;;;;;;;14.97;7.50;;;4.10;99.90;;;;;;10305128;28;20038;-81
2022/04/16 03:51:14;;;;;;;15.57;8.07;;;4.00;99.90;;;;;;10332818;28;20055;-81
2022/04/16 04:01:34;;;;;;;17.73;7.47;;;4.10;99.90;;;;;;10330707;28;20490;-81
2022/04/16 04:06:35;;;;;;;16.47;7.90;;;4.10;99.90;;;;;;10314453;28;20042;-82
2022/04/16 04:11:36;;;;;;;18.57;8.33;;;4.10;99.90;;;;;;10299480;28;20118;-81
2022/04/16 04:16:36;;;;;;;16.23;7.67;;;4.10;99.90;;;;;;10315439;28;20590;-82
2022/04/16 04:21:37;;;;;;;18.73;7.53;;;4.10;99.90;;;;;;10331931;28;20104;-81
2022/04/16 04:26:37;;;;;;;16.37;7.23;;;4.10;99.90;;;;;;10330279;28;20038;-81
2022/04/16 04:31:38;;;;;;;19.70;7.70;;;4.10;99.90;;;;;;10331762;28;20034;-82
2022/04/16 04:36:38;;;;;;;20.23;8.43;;;4.20;99.90;;;;;;10331452;28;20057;-81
2022/04/16 04:41:42;;;;;;;21.07;8.47;;;4.10;99.90;;;;;;10313022;28;20031;-80
2022/04/16 04:46:43;;;;;;;18.40;7.83;;;4.20;99.90;;;;;;10303786;28;20030;-83
2022/04/16 04:51:44;;;;;;;20.60;9.63;;;4.10;99.90;;;;;;10313051;28;20029;-81
2022/04/16 04:56:45;;;;;;;18.27;7.97;;;4.20;99.90;;;;;;10327535;28;20044;-80
2022/04/16 05:01:45;;;;;;;20.17;8.80;;;4.20;99.90;;;;;;10329298;28;20030;-80
2022/04/16 05:06:46;;;;;;;27.03;10.40;;;4.20;99.90;;;;;;10329770;28;20540;-80
2022/04/16 05:11:46;;;;;;;27.60;11.67;;;4.30;99.90;;;;;;10314661;28;20026;-80
2022/04/16 05:16:48;;;;;;;37.30;13.73;;;4.30;99.90;;;;;;10312012;28;20050;-82
2022/04/16 05:21:48;;;;;;;40.97;17.30;;;4.40;99.90;;;;;;10321972;28;20023;-80
2022/04/16 05:26:49;;;;;;;57.23;21.23;;;4.40;99.90;;;;;;10321095;28;20042;-79
2022/04/16 05:31:50;;;;;;;61.27;23.13;;;4.40;99.90;;;;;;10298865;28;20606;-81
2022/04/16 05:36:50;;;;;;;55.47;21.90;;;4.40;99.90;;;;;;10327336;28;20030;-81
2022/04/16 05:41:51;;;;;;;51.33;19.93;;;4.50;99.90;;;;;;10326396;28;20033;-80
2022/04/16 05:46:52;;;;;;;42.47;17.63;;;4.50;99.90;;;;;;10313143;28;20085;-78
2022/04/16 05:51:52;;;;;;;33.93;15.00;;;4.60;99.90;;;;;;10303553;28;20054;-82
2022/04/16 05:56:53;;;;;;;33.27;15.90;;;4.70;99.90;;;;;;10323747;28;20074;-81
2022/04/16 06:01:56;;;;;;;34.93;15.90;;;4.70;99.90;;;;;;10323926;28;20022;-82
2022/04/16 06:06:56;;;;;;;40.43;16.30;;;4.70;99.90;;;;;;10324598;28;20038;-79
2022/04/16 06:12:04;;;;;;;35.40;14.33;;;4.80;99.90;;;;;;10322607;28;20430;-80
2022/04/16 06:17:04;;;;;;;31.03;13.50;;;4.70;99.90;;;;;;10325863;28;20084;-82
2022/04/16 06:22:05;;;;;;;38.03;16.07;;;4.60;99.90;;;;;;10322521;28;20034;-80
2022/04/16 06:27:06;;;;;;;31.87;13.53;;;4.60;99.90;;;;;;10323950;28;20368;-81
2022/04/16 06:32:07;;;;;;;34.30;13.37;;;4.70;99.90;;;;;;10321817;28;20026;-80
2022/04/16 06:37:08;;;;;;;40.80;17.20;;;4.70;99.90;;;;;;10322061;28;20030;-81
2022/04/16 06:42:08;;;;;;;35.57;16.67;;;4.80;99.90;;;;;;10323606;28;20478;-79
2022/04/16 06:47:09;;;;;;;32.77;15.30;;;4.70;99.90;;;;;;10323927;28;20041;-80
2022/04/16 06:52:09;;;;;;;35.63;16.70;;;4.70;99.90;;;;;;10323071;28;20030;-80
2022/04/16 06:57:12;;;;;;;42.77;17.03;;;4.60;99.90;;;;;;10313518;28;20632;-81
2022/04/16 07:02:13;;;;;;;34.43;14.73;;;4.60;99.90;;;;;;10313619;28;20034;-81
2022/04/16 07:07:14;;;;;;;30.27;14.70;;;4.60;99.90;;;;;;10320547;28;20043;-83
2022/04/16 07:12:15;;;;;;;29.03;13.80;;;4.50;99.90;;;;;;10319749;28;20351;-83
2022/04/16 07:17:16;;;;;;;27.43;13.60;;;4.60;99.90;;;;;;10321988;28;20122;-82
2022/04/16 07:22:19;;;;;;;32.00;16.47;;;4.70;99.90;;;;;;10322952;28;20038;-83
2022/04/16 07:27:20;;;;;;;31.83;16.00;;;4.70;99.90;;;;;;10304202;28;20046;-82
2022/04/16 07:32:21;;;;;;;31.83;14.87;;;4.70;99.90;;;;;;10322653;28;20034;-81
2022/04/16 07:37:23;;;;;;;28.20;15.73;;;4.80;99.90;;;;;;10326994;28;20474;-83
2022/04/16 07:42:27;;;;;;;26.60;14.17;;;4.80;99.90;;;;;;10322336;28;20106;-81
2022/04/16 07:47:27;;;;;;;23.33;12.80;;;4.70;99.90;;;;;;10317578;28;20096;-81
2022/04/16 07:52:28;;;;;;;25.70;13.97;;;4.60;99.90;;;;;;10313880;28;20506;-81
2022/04/16 07:57:28;;;;;;;20.23;11.43;;;4.60;99.90;;;;;;10317995;28;20031;-81
2022/04/16 08:02:29;;;;;;;18.13;10.80;;;4.80;99.90;;;;;;10316519;28;20040;-82
2022/04/16 08:07:32;;;;;;;17.73;9.60;;;4.90;99.90;;;;;;10312247;28;20043;-83
2022/04/16 08:12:32;;;;;;;18.10;10.30;;;5.00;99.90;;;;;;10318082;28;20039;-80
2022/04/16 08:17:34;;;;;;;16.03;10.17;;;5.20;99.90;;;;;;10317564;28;20067;-82
2022/04/16 08:22:35;;;;;;;28.63;17.00;;;5.30;99.90;;;;;;10313921;28;20037;-84
2022/04/16 08:27:36;;;;;;;31.47;19.43;;;5.30;99.90;;;;;;10323969;28;20030;-84
2022/04/16 08:32:41;;;;;;;30.43;17.20;;;4.90;99.90;;;;;;10301488;28;20026;-82
2022/04/16 08:37:42;;;;;;;25.77;15.13;;;4.60;99.90;;;;;;10320839;28;20501;-82
2022/04/16 08:42:46;;;;;;;28.47;15.53;;;4.50;99.90;;;;;;10354807;28;20065;-82
2022/04/16 08:47:47;;;;;;;18.80;11.00;;;4.40;99.90;;;;;;10330389;28;20066;-81
2022/04/16 08:52:49;;;;;;;15.73;10.07;;;4.40;99.90;;;;;;10328449;28;20033;-81
2022/04/16 08:57:51;;;;;;;20.00;11.40;;;4.40;99.90;;;;;;10321143;28;20030;-81
2022/04/16 09:02:54;;;;;;;14.13;9.00;;;4.80;99.90;;;;;;10322520;28;20034;-83
2022/04/16 09:07:57;;;;;;;17.37;11.03;;;5.10;99.90;;;;;;10309038;28;20034;-84
2022/04/16 09:13:00;;;;;;;16.37;9.83;;;5.00;99.90;;;;;;10296155;28;20074;-81
2022/04/16 09:18:08;;;;;;;13.70;9.20;;;4.90;99.90;;;;;;10295883;28;20154;-81
2022/04/16 09:23:20;;;;;;;16.10;9.77;;;4.70;99.90;;;;;;10329588;28;20065;-82
2022/04/16 09:28:21;;;;;;;12.50;8.60;;;4.60;99.90;;;;;;10317033;28;20070;-81
2022/04/16 09:33:23;;;;;;;15.43;9.17;;;4.70;99.90;;;;;;10336344;28;20750;-82
2022/04/16 09:38:27;;;;;;;12.20;8.07;;;4.70;99.90;;;;;;10336258;28;20490;-83
2022/04/16 09:43:34;;;;;;;13.87;7.80;;;4.90;99.90;;;;;;10333072;28;20124;-79
2022/04/16 09:48:36;;;;;;;8.37;5.77;;;5.20;99.90;;;;;;10337655;28;20042;-81
2022/04/16 09:53:37;;;;;;;9.73;5.70;;;6.00;99.90;;;;;;10350226;23;20152;-78
2022/04/16 09:58:43;;;;;;;7.80;5.03;;;6.30;99.90;;;;;;10361200;28;20050;-79
2022/04/16 10:03:45;;;;;;;11.50;5.63;;;6.40;99.90;;;;;;10359145;28;20026;-78
2022/04/16 10:08:50;;;;;;;6.93;5.00;;;6.40;99.90;;;;;;10356330;28;20399;-80
2022/04/16 10:13:58;;;;;;;6.20;3.80;;;6.40;99.90;;;;;;10355393;28;20022;-79
2022/04/16 10:18:59;;;;;;;3.90;3.37;;;6.60;99.90;;;;;;10359961;28;20563;-79
2022/04/16 10:24:01;;;;;;;5.67;3.03;;;7.20;99.90;;;;;;10353476;28;20026;-78
2022/04/16 10:29:03;;;;;;;5.20;3.20;;;7.30;99.90;;;;;;10365969;28;20049;-80
2022/04/16 10:34:04;;;;;;;3.83;2.53;;;7.30;99.90;;;;;;10365200;28;20033;-80
2022/04/16 10:39:15;;;;;;;4.07;2.77;;;7.00;99.90;;;;;;10382291;28;20033;-79
2022/04/16 10:44:16;;;;;;;2.90;2.50;;;7.70;99.90;;;;;;10407367;28;20117;-81
2022/04/16 10:49:22;;;;;;;3.70;2.50;;;8.30;99.90;;;;;;10400148;28;20511;-78
2022/04/16 10:54:32;;;;;;;4.70;2.43;;;8.40;99.90;;;;;;10394416;28;20149;-79
2022/04/16 10:59:44;;;;;;;2.77;1.97;;;8.40;99.90;;;;;;10399190;28;20030;-83
2022/04/16 11:04:57;;;;;;;5.53;2.90;;;8.00;99.90;;;;;;10403545;28;20052;-79
2022/04/16 11:09:58;;;;;;;1.93;1.83;;;8.10;99.90;;;;;;10407273;28;20048;-79
2022/04/16 11:15:01;;;;;;;3.07;2.07;;;8.80;99.90;;;;;;10405818;28;20043;-79
2022/04/16 11:20:06;;;;;;;2.67;2.10;;;8.70;99.90;;;;;;10413097;28;20025;-82
2022/04/16 11:25:08;;;;;;;3.00;1.83;;;8.70;99.90;;;;;;10404121;28;20041;-78
2022/04/16 11:35:29;;;;;;;5.00;2.10;;;8.60;99.90;;;;;;10402864;28;20460;-81
2022/04/16 11:40:33;;;;;;;2.17;1.97;;;8.80;99.90;;;;;;10412932;28;20028;-81
2022/04/16 11:45:33;;;;;;;4.87;2.47;;;8.50;99.90;;;;;;10405457;28;20020;-80
2022/04/16 11:50:34;;;;;;;5.40;1.97;;;9.10;99.90;;;;;;10396345;28;20033;-83
2022/04/16 11:55:47;;;;;;;3.40;2.50;;;9.10;99.90;;;;;;10403583;28;20064;-81
2022/04/16 12:00:50;;;;;;;3.00;2.40;;;9.20;99.90;;;;;;10399909;28;20029;-79
2022/04/16 12:05:51;;;;;;;3.80;2.40;;;9.20;99.90;;;;;;10402854;28;20025;-81
2022/04/16 12:10:52;;;;;;;1.77;1.60;;;8.80;99.90;;;;;;10403998;28;20044;-79
2022/04/16 12:15:52;;;;;;;3.60;2.03;;;9.00;99.90;;;;;;10399198;28;20061;-80
2022/04/16 12:20:53;;;;;;;2.90;1.80;;;9.30;99.90;;;;;;10400686;28;20030;-79
2022/04/16 12:26:07;;;;;;;2.47;2.10;;;9.60;99.90;;;;;;10403531;28;20163;-83
2022/04/16 12:31:08;;;;;;;3.73;2.40;;;9.30;99.90;;;;;;10399725;28;20033;-83
2022/04/16 12:36:09;;;;;;;3.17;1.90;;;8.90;99.90;;;;;;10403749;28;20022;-78
2022/04/16 12:41:10;;;;;;;3.07;2.40;;;9.20;99.90;;;;;;10404474;28;20112;-79
2022/04/16 12:46:11;;;;;;;5.20;2.93;;;9.20;99.90;;;;;;10400198;28;20021;-79
2022/04/16 12:51:12;;;;;;;4.33;2.60;;;8.90;99.90;;;;;;10401779;28;20030;-78
2022/04/16 12:56:13;;;;;;;4.80;3.20;;;9.10;99.90;;;;;;10408303;28;20049;-83
2022/04/16 13:01:14;;;;;;;7.20;2.80;;;9.60;99.90;;;;;;10403418;28;20037;-82
2022/04/16 13:06:14;;;;;;;6.87;2.97;;;9.50;99.90;;;;;;10401927;28;20040;-81
2022/04/16 13:11:17;;;;;;;3.03;2.50;;;9.20;99.90;;;;;;10407508;28;20056;-79
2022/04/16 13:16:17;;;;;;;4.00;2.80;;;8.90;99.90;;;;;;10398996;28;20086;-78
2022/04/16 13:21:18;;;;;;;4.53;2.83;;;8.90;99.90;;;;;;10401042;28;20469;-79
2022/04/16 13:26:19;;;;;;;4.50;3.00;;;9.00;99.90;;;;;;10400358;28;20083;-78
2022/04/16 13:31:20;;;;;;;4.63;3.10;;;8.90;99.90;;;;;;10404538;28;20091;-81
2022/04/16 13:36:21;;;;;;;2.83;2.37;;;8.20;99.90;;;;;;10404423;28;20059;-81
2022/04/16 13:41:40;;;;;;;3.90;2.60;;;8.10;99.90;;;;;;10403895;28;20378;-81
2022/04/16 13:46:40;;;;;;;5.03;2.90;;;8.80;99.90;;;;;;10399012;28;20125;-82
2022/04/16 13:51:41;;;;;;;4.23;2.97;;;8.90;99.90;;;;;;10397379;28;20033;-78
2022/04/16 13:56:42;;;;;;;67.87;42.50;;;8.60;99.90;;;;;;10403405;28;20099;-80
2022/04/16 14:01:42;;;;;;;22.23;12.70;;;8.40;99.90;;;;;;10402410;28;20080;-82
2022/04/16 14:06:44;;;;;;;20.03;12.07;;;8.20;99.90;;;;;;10388610;28;20492;-79
2022/04/16 14:11:45;;;;;;;5.00;2.80;;;8.20;99.90;;;;;;10402985;28;20037;-78
2022/04/16 14:16:45;;;;;;;9.60;5.27;;;8.50;99.90;;;;;;10401146;28;20108;-79
2022/04/16 14:21:46;;;;;;;137.03;77.17;;;8.60;99.90;;;;;;10397109;28;20048;-81
2022/04/16 14:26:47;;;;;;;15.70;8.77;;;8.90;99.90;;;;;;10400700;28;20029;-81
2022/04/16 14:31:48;;;;;;;71.27;34.60;;;8.90;99.90;;;;;;10396693;28;20282;-80
2022/04/16 14:36:49;;;;;;;148.90;73.37;;;8.80;99.90;;;;;;10401362;28;20017;-80
2022/04/16 14:41:49;;;;;;;111.53;55.17;;;8.30;99.90;;;;;;10397260;28;20029;-79
2022/04/16 14:46:50;;;;;;;5.13;4.07;;;8.30;99.90;;;;;;10381386;28;20552;-80
2022/04/16 14:51:56;;;;;;;8.70;4.10;;;8.40;99.90;;;;;;10384236;28;20055;-79
2022/04/16 14:56:57;;;;;;;17.70;12.03;;;8.40;99.90;;;;;;10403865;28;20370;-80
2022/04/16 15:01:59;;;;;;;7.97;6.10;;;8.60;99.90;;;;;;10402817;28;20029;-82
2022/04/16 15:06:59;;;;;;;9.73;8.07;;;8.40;99.90;;;;;;10403640;28;20021;-80
2022/04/16 15:12:03;;;;;;;7.40;3.90;;;8.40;99.90;;;;;;10399512;28;20030;-81
2022/04/16 15:17:03;;;;;;;5.47;3.30;;;8.30;96.20;;;;;;10405097;28;20039;-81
2022/04/16 15:22:05;;;;;;;4.27;3.00;;;8.40;99.90;;;;;;10404842;28;20036;-80
2022/04/16 15:27:05;;;;;;;4.93;3.43;;;8.30;94.10;;;;;;10399628;28;20504;-79
2022/04/16 15:32:06;;;;;;;7.30;3.60;;;8.20;91.20;;;;;;10404609;28;20109;-80
2022/04/16 15:37:07;;;;;;;6.57;3.73;;;8.20;96.80;;;;;;10404798;28;20453;-79
2022/04/16 15:42:08;;;;;;;4.70;3.27;;;8.30;96.40;;;;;;10387103;28;20021;-80
2022/04/16 15:47:08;;;;;;;6.00;3.33;;;8.20;93.00;;;;;;10404582;28;20052;-79
2022/04/16 15:52:09;;;;;;;4.60;3.20;;;8.00;92.70;;;;;;10405964;28;20088;-80
2022/04/16 15:57:14;;;;;;;5.30;4.20;;;7.90;92.80;;;;;;10410118;28;20025;-82
2022/04/16 16:02:15;;;;;;;7.97;4.00;;;7.80;91.60;;;;;;10411074;28;20436;-79
2022/04/16 16:07:15;;;;;;;6.27;3.93;;;7.90;94.10;;;;;;10392767;28;20033;-80
2022/04/16 16:12:17;;;;;;;6.20;3.83;;;7.90;92.30;;;;;;10401095;28;20041;-82
2022/04/16 16:17:18;;;;;;;7.30;4.20;;;7.90;88.90;;;;;;10410721;28;20036;-80
2022/04/16 16:22:21;;;;;;;6.57;3.37;;;7.90;90.30;;;;;;10411503;28;20025;-80
2022/04/16 16:27:23;;;;;;;5.20;3.13;;;7.80;90.50;;;;;;10410923;28;20029;-80
2022/04/16 16:32:26;;;;;;;5.33;3.13;;;7.80;91.80;;;;;;10392822;28;20501;-81
2022/04/16 16:37:27;;;;;;;6.13;3.20;;;7.60;82.90;;;;;;10408349;28;20041;-80
2022/04/16 16:42:27;;;;;;;4.40;2.87;;;7.60;84.00;;;;;;10410280;28;20128;-81
2022/04/16 16:47:29;;;;;;;4.57;2.90;;;7.50;82.10;;;;;;10412099;28;20040;-82
2022/04/16 16:52:30;;;;;;;6.13;3.77;;;7.40;83.30;;;;;;10387589;28;20049;-81
2022/04/16 16:57:30;;;;;;;5.67;3.00;;;7.40;86.20;;;;;;10406828;28;20413;-82
2022/04/16 17:07:50;;;;;;;15.10;7.83;;;7.30;87.30;;;;;;10402119;28;20053;-81
2022/04/16 17:12:52;;;;;;;13.23;6.07;;;7.40;90.50;;;;;;10396026;28;20029;-80
2022/04/16 17:23:12;;;;;;;14.80;5.87;;;7.40;93.40;;;;;;10401142;28;20041;-82
2022/04/16 17:28:13;;;;;;;17.53;7.13;;;7.30;94.80;;;;;;10396764;28;20037;-81
2022/04/16 17:33:14;;;;;;;16.07;7.10;;;7.30;95.10;;;;;;10390375;28;20029;-85
2022/04/16 17:38:15;;;;;;;10.93;5.67;;;7.30;95.90;;;;;;10409286;28;20432;-84
2022/04/16 17:43:15;;;;;;;10.57;5.13;;;7.10;95.60;;;;;;10398001;28;20072;-82
2022/04/16 17:48:16;;;;;;;14.33;6.80;;;6.90;95.00;;;;;;10405321;28;20076;-81
2022/04/16 17:53:17;;;;;;;13.30;5.60;;;6.60;95.40;;;;;;10395175;28;20057;-84
2022/04/16 17:58:18;;;;;;;13.03;5.23;;;6.10;96.50;;;;;;10400345;28;20025;-81
2022/04/16 18:03:19;;;;;;;18.40;8.53;;;5.70;98.20;;;;;;10400978;28;20033;-79
2022/04/16 18:08:22;;;;;;;20.03;9.27;;;5.50;99.00;;;;;;10403936;28;20084;-80
2022/04/16 18:13:23;;;;;;;27.90;9.77;;;5.20;99.80;;;;;;10401584;28;20121;-82
2022/04/16 18:18:26;;;;;;;25.53;9.80;;;4.90;99.90;;;;;;10399725;28;20018;-80
2022/04/16 18:23:26;;;;;;;20.07;8.67;;;4.70;99.90;;;;;;10395013;28;20055;-79
2022/04/16 18:28:27;;;;;;;20.47;9.73;;;4.50;99.90;;;;;;10396064;28;20110;-81
2022/04/16 18:33:28;;;;;;;24.20;9.30;;;4.40;99.90;;;;;;10400452;28;20029;-81
2022/04/16 18:38:29;;;;;;;19.37;8.40;;;4.40;99.90;;;;;;10398227;28;20037;-80
2022/04/16 18:43:31;;;;;;;16.63;7.50;;;4.40;99.90;;;;;;10404851;28;20408;-83
2022/04/16 18:48:32;;;;;;;20.07;9.00;;;4.40;99.90;;;;;;10406746;28;20057;-81
2022/04/16 18:53:33;;;;;;;14.00;7.37;;;4.40;99.90;;;;;;10385261;28;20140;-81
2022/04/16 18:58:33;;;;;;;15.90;7.73;;;4.50;99.90;;;;;;10405069;28;20034;-80
2022/04/16 19:08:57;;;;;;;15.97;7.03;;;4.40;99.90;;;;;;10393362;28;20054;-81
2022/04/16 19:13:59;;;;;;;14.67;6.33;;;4.40;99.90;;;;;;10396223;28;20033;-81
2022/04/16 19:19:02;;;;;;;13.87;6.50;;;4.30;99.90;;;;;;10398172;28;20025;-81
2022/04/16 19:24:03;;;;;;;15.40;8.40;;;4.30;99.90;;;;;;10393471;28;20014;-82
2022/04/16 19:29:04;;;;;;;15.17;7.50;;;4.30;99.90;;;;;;10406857;28;20584;-80
2022/04/16 19:34:05;;;;;;;18.47;7.93;;;4.40;99.90;;;;;;10408300;28;20034;-80
2022/04/16 19:39:06;;;;;;;18.90;9.33;;;4.40;99.90;;;;;;10407980;28;20533;-82
2022/04/16 19:44:09;;;;;;;23.47;10.83;;;4.60;99.90;;;;;;10406978;28;20074;-82
2022/04/16 19:49:12;;;;;;;32.37;14.37;;;4.70;99.90;;;;;;10410712;28;20200;-81
2022/04/16 19:54:15;;;;;;;41.53;18.17;;;4.70;99.90;;;;;;10406322;28;20148;-81
2022/04/16 19:59:16;;;;;;;29.80;13.67;;;4.80;99.90;;;;;;10409765;28;20061;-80
2022/04/16 20:04:16;;;;;;;24.07;12.00;;;5.00;99.90;;;;;;10408872;28;20120;-81
2022/04/16 20:14:37;;;;;;;20.83;11.37;;;5.20;99.90;;;;;;10409546;28;20041;-80
2022/04/16 20:19:37;;;;;;;19.77;10.53;;;5.40;99.90;;;;;;10407290;28;20025;-80
2022/04/16 20:24:38;;;;;;;22.03;11.80;;;5.50;99.90;;;;;;10404604;28;20117;-80
2022/04/16 20:29:39;;;;;;;21.40;10.03;;;5.50;99.70;;;;;;10407385;28;20055;-82
2022/04/16 20:34:40;;;;;;;19.43;10.10;;;5.50;99.60;;;;;;10397196;28;20059;-82
2022/04/16 20:50:20;;;;;;;19.60;9.77;;;5.60;98.30;;;;;;10403855;28;20420;-80
2022/04/16 20:55:21;;;;;;;18.40;8.73;;;5.60;97.70;;;;;;10396121;28;20088;-80
2022/04/16 21:00:22;;;;;;;17.97;8.90;;;5.50;97.40;;;;;;10400507;28;20033;-79
2022/04/16 21:05:23;;;;;;;16.37;8.70;;;5.50;97.40;;;;;;10404754;28;20041;-81
2022/04/16 21:10:25;;;;;;;18.30;8.40;;;5.40;97.50;;;;;;10402763;28;20117;-80
2022/04/16 21:15:25;;;;;;;22.30;9.80;;;5.30;97.60;;;;;;10406438;28;20028;-81
2022/04/16 21:20:27;;;;;;;21.40;9.57;;;5.30;98.20;;;;;;10409109;28;20500;-81
2022/04/16 21:25:28;;;;;;;20.33;8.67;;;5.20;98.00;;;;;;10405363;28;20493;-80
2022/04/16 21:30:29;;;;;;;18.87;8.87;;;5.10;98.20;;;;;;10406072;28;20046;-81
2022/04/16 21:35:30;;;;;;;23.50;8.47;;;4.90;98.40;;;;;;10404199;28;20037;-80
2022/04/16 21:40:30;;;;;;;19.50;8.87;;;4.80;98.50;;;;;;10396214;28;20018;-80
2022/04/16 21:45:33;;;;;;;17.87;6.73;;;4.70;99.00;;;;;;10404263;28;20022;-80
2022/04/16 21:50:35;;;;;;;18.73;7.80;;;4.50;99.80;;;;;;10400947;28;20039;-81
2022/04/16 21:55:36;;;;;;;16.13;7.83;;;4.40;99.90;;;;;;10404080;28;20088;-81
2022/04/16 22:00:36;;;;;;;14.20;7.33;;;4.30;99.90;;;;;;10403378;28;20072;-81
2022/04/16 22:05:37;;;;;;;17.00;7.47;;;4.30;99.90;;;;;;10404198;28;20080;-81
2022/04/16 22:10:38;;;;;;;16.57;7.73;;;4.20;99.90;;;;;;10401766;28;20053;-79
2022/04/16 22:15:39;;;;;;;14.17;6.80;;;4.20;99.90;;;;;;10404510;28;20028;-80
2022/04/16 22:20:39;;;;;;;16.80;7.60;;;4.10;99.90;;;;;;10393590;28;20445;-80
2022/04/16 22:25:40;;;;;;;14.23;7.00;;;4.10;99.90;;;;;;10397592;28;20025;-80
2022/04/16 22:30:41;;;;;;;13.60;6.60;;;4.00;99.90;;;;;;10400862;28;20033;-80
2022/04/16 22:35:42;;;;;;;14.70;7.53;;;3.90;99.90;;;;;;10399695;28;20463;-81
2022/04/16 22:46:02;;;;;;;14.83;7.43;;;3.70;99.90;;;;;;10401582;28;20405;-80
2022/04/16 22:51:04;;;;;;;16.17;6.87;;;3.70;99.90;;;;;;10387727;28;20033;-81
2022/04/16 22:56:06;;;;;;;14.83;6.87;;;3.70;99.90;;;;;;10399721;28;20045;-80
2022/04/16 23:01:06;;;;;;;20.43;7.90;;;3.60;99.90;;;;;;10380228;28;20477;-80
2022/04/16 23:06:11;;;;;;;15.23;7.43;;;3.50;99.90;;;;;;10408378;28;20025;-80
2022/04/16 23:11:11;;;;;;;16.37;8.13;;;3.50;99.90;;;;;;10405995;28;20033;-80
2022/04/16 23:21:32;;;;;;;18.70;7.03;;;3.40;99.90;;;;;;10404112;28;20163;-82
2022/04/16 23:26:34;;;;;;;23.67;7.73;;;3.30;99.90;;;;;;10407780;28;20033;-79
2022/04/16 23:31:35;;;;;;;19.07;7.50;;;3.20;99.90;;;;;;10408075;28;20120;-80
2022/04/16 23:36:36;;;;;;;17.07;7.30;;;3.20;99.90;;;;;;10407534;28;20033;-80
2022/04/16 23:41:38;;;;;;;20.00;7.47;;;3.10;99.90;;;;;;10378566;28;20490;-81
2022/04/16 23:46:57;;;;;;;19.17;8.00;;;3.00;99.90;;;;;;10398366;28;20550;-80
2022/04/16 23:51:57;;;;;;;15.07;7.73;;;3.00;99.90;;;;;;10386842;28;20104;-79
2022/04/16 23:56:58;;;;;;;17.47;7.73;;;3.00;99.90;;;;;;10373695;28;20030;-79
